createdAt,value
2019-01-10T00:00:40.680Z,37.90
2019-01-10T00:03:06.614Z,37.90
2019-01-10T00:05:32.545Z,37.90
2019-01-10T00:07:58.583Z,38.00
2019-01-10T00:10:24.642Z,38.00
2019-01-10T00:12:50.588Z,37.90
2019-01-10T00:15:16.555Z,37.90
2019-01-10T00:17:42.478Z,38.00
2019-01-10T00:20:08.424Z,37.90
2019-01-10T00:22:34.368Z,38.00
2019-01-10T00:25:00.310Z,37.90
2019-01-10T00:27:26.260Z,37.90
2019-01-10T00:29:52.236Z,38.00
2019-01-10T00:32:18.171Z,38.00
2019-01-10T00:34:44.110Z,38.00
2019-01-10T00:37:10.043Z,38.00
2019-01-10T00:39:35.999Z,38.00
2019-01-10T00:42:01.943Z,38.00
2019-01-10T00:44:27.903Z,38.00
2019-01-10T00:46:53.870Z,37.90
2019-01-10T00:49:19.925Z,38.00
2019-01-10T00:51:45.861Z,38.00
2019-01-10T00:54:11.793Z,38.10
2019-01-10T00:56:37.758Z,38.00
2019-01-10T00:59:03.729Z,38.10
2019-01-10T01:01:29.692Z,38.10
2019-01-10T01:03:55.650Z,38.20
2019-01-10T01:06:21.586Z,38.10
2019-01-10T01:08:47.553Z,38.00
2019-01-10T01:11:13.588Z,38.10
2019-01-10T01:13:39.529Z,38.10
2019-01-10T01:16:05.470Z,38.10
2019-01-10T01:18:31.401Z,38.10
2019-01-10T01:20:57.363Z,38.10
2019-01-10T01:23:23.313Z,38.10
2019-01-10T01:25:49.937Z,38.20
2019-01-10T01:28:15.924Z,38.10
2019-01-10T01:30:41.977Z,38.20
2019-01-10T01:33:07.925Z,38.20
2019-01-10T01:35:33.895Z,38.70
2019-01-10T01:37:59.951Z,37.00
2019-01-10T01:40:26.019Z,38.10
2019-01-10T01:42:52.005Z,37.90
2019-01-10T01:45:18.044Z,38.00
2019-01-10T01:47:44.014Z,38.00
2019-01-10T01:50:09.967Z,37.90
2019-01-10T01:52:35.923Z,37.90
2019-01-10T01:55:01.891Z,37.80
2019-01-10T01:57:27.833Z,37.90
2019-01-10T01:59:53.799Z,37.90
2019-01-10T02:02:19.757Z,37.80
2019-01-10T02:04:45.716Z,37.80
2019-01-10T02:07:11.682Z,37.80
2019-01-10T02:09:37.717Z,37.80
2019-01-10T02:12:04.011Z,37.90
2019-01-10T02:14:29.967Z,37.80
2019-01-10T02:16:55.931Z,37.80
2019-01-10T02:19:21.901Z,37.90
2019-01-10T02:21:47.937Z,37.80
2019-01-10T02:24:13.902Z,37.90
2019-01-10T02:26:39.869Z,37.90
2019-01-10T02:29:05.915Z,37.90
2019-01-10T02:31:31.865Z,37.80
2019-01-10T02:33:57.836Z,37.90
2019-01-10T02:36:23.888Z,37.90
2019-01-10T02:38:49.861Z,37.90
2019-01-10T02:41:15.938Z,37.90
2019-01-10T02:43:41.897Z,37.80
2019-01-10T02:46:07.863Z,37.80
2019-01-10T02:48:34.032Z,37.80
2019-01-10T02:51:00.108Z,37.80
2019-01-10T02:53:26.163Z,37.90
2019-01-10T02:55:52.976Z,37.90
2019-01-10T02:58:18.932Z,38.00
2019-01-10T03:00:44.880Z,37.90
2019-01-10T03:03:10.812Z,37.90
2019-01-10T03:05:36.774Z,37.80
2019-01-10T03:08:02.711Z,37.80
2019-01-10T03:10:28.677Z,37.90
2019-01-10T03:12:54.604Z,37.80
2019-01-10T03:15:20.654Z,37.80
2019-01-10T03:17:46.602Z,37.80
2019-01-10T03:20:12.540Z,37.90
2019-01-10T03:22:38.472Z,38.00
2019-01-10T03:25:04.434Z,37.90
2019-01-10T03:27:30.480Z,37.90
2019-01-10T03:29:56.426Z,38.00
2019-01-10T03:32:22.388Z,38.00
2019-01-10T03:34:48.326Z,38.00
2019-01-10T03:37:14.270Z,38.00
2019-01-10T03:39:40.215Z,38.00
2019-01-10T03:42:06.170Z,38.00
2019-01-10T03:44:34.358Z,38.00
2019-01-10T03:46:59.969Z,38.00
2019-01-10T03:49:25.999Z,37.90
2019-01-10T03:51:51.965Z,38.30
2019-01-10T03:54:17.995Z,38.00
2019-01-10T03:56:43.966Z,38.00
2019-01-10T03:59:09.904Z,38.00
2019-01-10T04:01:35.872Z,38.00
2019-01-10T04:04:01.976Z,38.00
2019-01-10T04:06:28.020Z,37.60
2019-01-10T04:08:53.956Z,38.10
2019-01-10T04:11:19.916Z,38.10
2019-01-10T04:13:45.872Z,38.10
2019-01-10T04:16:11.834Z,38.10
2019-01-10T04:18:37.900Z,38.00
2019-01-10T04:21:03.924Z,38.00
2019-01-10T04:23:29.871Z,38.00
2019-01-10T04:25:55.935Z,38.00
2019-01-10T04:28:21.977Z,38.00
2019-01-10T04:30:47.914Z,38.20
2019-01-10T04:33:13.868Z,38.10
2019-01-10T04:35:40.755Z,38.10
2019-01-10T04:38:06.807Z,38.10
2019-01-10T04:40:32.750Z,38.10
2019-01-10T04:42:58.707Z,38.10
2019-01-10T04:45:24.747Z,38.10
2019-01-10T04:47:50.703Z,38.20
2019-01-10T04:50:16.777Z,38.20
2019-01-10T04:52:42.740Z,38.70
2019-01-10T04:55:08.688Z,38.30
2019-01-10T04:57:34.742Z,38.20
2019-01-10T05:00:00.818Z,38.30
2019-01-10T05:02:26.865Z,38.20
2019-01-10T05:04:52.818Z,38.10
2019-01-10T05:07:18.852Z,38.10
2019-01-10T05:09:44.797Z,38.00
2019-01-10T05:12:10.747Z,38.00
2019-01-10T05:14:36.699Z,37.90
2019-01-10T05:17:02.647Z,37.90
2019-01-10T05:19:28.600Z,38.00
2019-01-10T05:21:54.669Z,38.00
2019-01-10T05:24:20.705Z,38.00
2019-01-10T05:26:46.642Z,38.10
2019-01-10T05:29:12.602Z,38.00
2019-01-10T05:31:38.568Z,38.00
2019-01-10T05:34:04.521Z,38.00
2019-01-10T05:36:30.476Z,38.00
2019-01-10T05:38:56.547Z,38.00
2019-01-10T05:41:22.509Z,38.00
2019-01-10T05:43:48.582Z,38.00
2019-01-10T05:46:14.543Z,37.90
2019-01-10T05:51:08.382Z,37.90
2019-01-10T05:53:34.431Z,37.90
2019-01-10T05:56:00.379Z,37.80
2019-01-10T05:58:26.332Z,37.80
2019-01-10T06:00:52.281Z,37.70
2019-01-10T06:03:18.350Z,37.80
2019-01-10T06:05:45.124Z,37.80
2019-01-10T06:08:11.049Z,37.80
2019-01-10T06:10:36.997Z,37.80
2019-01-10T06:13:02.949Z,38.10
2019-01-10T06:15:29.620Z,38.00
2019-01-10T06:17:55.583Z,38.00
2019-01-10T06:20:21.543Z,38.30
2019-01-10T06:22:47.495Z,38.30
2019-01-10T06:25:13.441Z,38.30
2019-01-10T06:27:39.408Z,38.40
2019-01-10T06:30:05.435Z,38.40
2019-01-10T06:32:31.415Z,38.50
2019-01-10T06:34:57.360Z,38.60
2019-01-10T06:37:23.325Z,38.60
2019-01-10T06:39:49.274Z,38.60
2019-01-10T06:42:15.227Z,38.60
2019-01-10T06:44:44.689Z,38.60
2019-01-10T06:47:09.044Z,38.60
2019-01-10T06:49:35.008Z,38.70
2019-01-10T06:52:00.989Z,38.70
2019-01-10T06:54:27.037Z,38.70
2019-01-10T06:56:52.991Z,38.70
2019-01-10T06:59:18.950Z,38.70
2019-01-10T07:01:44.901Z,38.70
2019-01-10T07:04:10.842Z,38.70
2019-01-10T07:06:37.797Z,38.60
2019-01-10T07:09:04.062Z,38.60
2019-01-10T07:11:29.990Z,38.60
2019-01-10T07:13:55.966Z,38.50
2019-01-10T07:16:21.927Z,38.50
2019-01-10T07:18:47.887Z,38.50
2019-01-10T07:21:13.945Z,39.10
2019-01-10T07:23:41.945Z,38.40
2019-01-10T07:26:07.888Z,38.40
2019-01-10T07:28:33.820Z,38.40
2019-01-10T07:31:00.565Z,38.40
2019-01-10T07:33:26.527Z,38.30
2019-01-10T07:35:53.020Z,38.30
2019-01-10T07:38:18.954Z,38.30
2019-01-10T07:40:44.917Z,38.30
2019-01-10T07:43:10.865Z,38.30
2019-01-10T07:45:36.992Z,38.30
2019-01-10T07:48:02.970Z,38.30
2019-01-10T07:50:28.925Z,38.30
2019-01-10T07:52:54.879Z,38.20
2019-01-10T07:55:20.922Z,38.20
2019-01-10T07:57:46.882Z,38.30
2019-01-10T08:00:12.862Z,38.30
2019-01-10T08:02:38.804Z,38.30
2019-01-10T08:05:04.970Z,38.20
2019-01-10T08:07:30.916Z,38.20
2019-01-10T08:09:56.880Z,38.20
2019-01-10T08:12:22.911Z,38.30
2019-01-10T08:14:48.889Z,38.20
2019-01-10T08:17:16.215Z,38.20
2019-01-10T08:19:42.427Z,38.20
2019-01-10T08:22:08.376Z,38.10
2019-01-10T08:24:34.323Z,38.20
2019-01-10T08:27:00.294Z,38.10
2019-01-10T08:29:26.252Z,38.10
2019-01-10T08:31:52.211Z,38.20
2019-01-10T08:34:18.247Z,38.10
2019-01-10T08:36:44.214Z,38.00
2019-01-10T08:39:10.261Z,38.10
2019-01-10T08:41:36.229Z,38.50
2019-01-10T08:44:02.222Z,38.00
2019-01-10T08:46:28.175Z,38.00
2019-01-10T08:48:54.130Z,38.00
2019-01-10T08:51:20.106Z,38.00
2019-01-10T08:53:53.750Z,38.00
2019-01-10T08:56:13.948Z,37.90
2019-01-10T08:58:39.908Z,38.00
2019-01-10T09:01:05.876Z,37.90
2019-01-10T09:03:31.805Z,37.90
2019-01-10T09:05:57.759Z,37.90
2019-01-10T09:08:23.697Z,37.90
2019-01-10T09:10:49.690Z,37.90
2019-01-10T09:13:15.632Z,37.90
2019-01-10T09:15:41.595Z,37.90
2019-01-10T09:18:07.653Z,37.90
2019-01-10T09:20:33.579Z,37.90
2019-01-10T09:22:59.543Z,37.90
2019-01-10T09:25:25.568Z,37.90
2019-01-10T09:27:51.527Z,37.90
2019-01-10T09:30:17.511Z,38.20
2019-01-10T09:32:43.449Z,37.80
2019-01-10T09:35:09.409Z,37.80
2019-01-10T09:37:35.372Z,37.90
2019-01-10T09:40:01.336Z,37.90
2019-01-10T09:42:27.362Z,37.60
2019-01-10T09:44:53.311Z,37.90
2019-01-10T09:47:19.261Z,37.70
2019-01-10T09:49:45.213Z,37.80
2019-01-10T09:52:11.167Z,37.90
2019-01-10T09:54:39.162Z,38.40
2019-01-10T09:57:05.013Z,37.80
2019-01-10T09:59:30.979Z,37.90
2019-01-10T10:01:56.942Z,38.40
2019-01-10T10:04:22.909Z,37.70
2019-01-10T10:06:48.863Z,37.80
2019-01-10T10:09:14.821Z,37.90
2019-01-10T10:11:40.860Z,37.80
2019-01-10T10:14:06.786Z,37.80
2019-01-10T10:16:32.729Z,37.80
2019-01-10T10:18:58.676Z,37.80
2019-01-10T10:21:24.633Z,37.80
2019-01-10T10:23:50.593Z,37.80
2019-01-10T10:26:16.635Z,37.80
2019-01-10T10:28:42.571Z,37.80
2019-01-10T10:31:08.519Z,37.80
2019-01-10T10:33:34.486Z,37.80
2019-01-10T10:36:00.465Z,37.80
2019-01-10T10:38:26.539Z,37.80
2019-01-10T10:40:52.487Z,37.80
2019-01-10T10:43:18.439Z,37.80
2019-01-10T10:45:44.877Z,37.80
2019-01-10T10:48:13.558Z,37.70
2019-01-10T10:50:38.688Z,37.80
2019-01-10T10:53:04.627Z,37.70
2019-01-10T10:55:30.577Z,37.80
2019-01-10T10:57:56.536Z,37.70
2019-01-10T11:00:22.586Z,37.60
2019-01-10T11:02:48.549Z,37.70
2019-01-10T11:05:14.527Z,37.70
2019-01-10T11:07:40.465Z,37.70
2019-01-10T11:10:06.413Z,37.70
2019-01-10T11:12:32.374Z,37.70
2019-01-10T11:14:58.515Z,37.60
2019-01-10T11:17:24.463Z,37.70
2019-01-10T11:19:51.210Z,38.20
2019-01-10T11:22:17.361Z,37.70
2019-01-10T11:24:43.321Z,37.60
2019-01-10T11:27:09.290Z,37.60
2019-01-10T11:29:35.362Z,37.90
2019-01-10T11:32:01.367Z,37.60
2019-01-10T11:34:27.389Z,37.60
2019-01-10T11:36:53.373Z,37.60
2019-01-10T11:39:19.343Z,37.60
2019-01-10T11:41:45.333Z,37.50
2019-01-10T11:44:11.313Z,37.40
2019-01-10T11:46:37.261Z,37.50
2019-01-10T11:49:03.251Z,37.40
2019-01-10T11:51:29.307Z,37.40
2019-01-10T11:53:55.361Z,37.50
2019-01-10T11:56:21.327Z,37.60
2019-01-10T11:58:47.276Z,37.50
2019-01-10T12:01:13.240Z,37.50
2019-01-10T12:03:39.172Z,37.50
2019-01-10T12:06:06.067Z,37.60
2019-01-10T12:08:32.030Z,37.50
2019-01-10T12:10:58.082Z,37.50
2019-01-10T12:13:24.027Z,37.50
2019-01-10T12:15:50.201Z,37.60
2019-01-10T12:18:16.151Z,37.50
2019-01-10T12:20:42.099Z,37.60
2019-01-10T12:23:08.054Z,37.60
2019-01-10T12:25:34.013Z,37.60
2019-01-10T12:27:59.967Z,37.60
2019-01-10T12:30:25.924Z,37.60
2019-01-10T12:32:51.879Z,37.60
2019-01-10T12:35:17.817Z,37.60
2019-01-10T12:37:43.762Z,37.60
2019-01-10T12:40:09.730Z,37.60
2019-01-10T12:42:35.664Z,37.60
2019-01-10T12:45:01.602Z,37.60
2019-01-10T12:47:27.556Z,37.50
2019-01-10T12:49:53.512Z,37.50
2019-01-10T12:52:19.444Z,37.60
2019-01-10T12:54:45.376Z,37.50
2019-01-10T12:57:11.309Z,37.60
2019-01-10T12:59:37.264Z,37.50
2019-01-10T13:02:03.223Z,37.60
2019-01-10T13:04:29.160Z,37.60
2019-01-10T13:06:55.104Z,37.60
2019-01-10T13:09:21.065Z,38.20
2019-01-10T13:11:47.106Z,37.70
2019-01-10T13:14:13.060Z,37.70
2019-01-10T13:16:46.796Z,37.60
2019-01-10T13:19:06.882Z,37.60
2019-01-10T13:21:32.940Z,37.60
2019-01-10T13:23:58.892Z,37.60
2019-01-10T13:26:24.897Z,37.60
2019-01-10T13:28:50.829Z,37.60
2019-01-10T13:31:16.774Z,37.50
2019-01-10T13:33:42.747Z,37.50
2019-01-10T13:36:08.737Z,37.50
2019-01-10T13:38:34.706Z,37.50
2019-01-10T13:41:00.847Z,37.60
2019-01-10T13:43:26.916Z,37.60
2019-01-10T13:45:52.889Z,37.60
2019-01-10T13:48:18.943Z,37.60
2019-01-10T13:50:44.912Z,37.60
2019-01-10T13:53:11.764Z,37.60
2019-01-10T13:55:37.829Z,37.50
2019-01-10T13:58:03.762Z,37.50
2019-01-10T14:00:35.273Z,37.50
2019-01-10T14:02:57.589Z,37.50
2019-01-10T14:05:23.531Z,37.50
2019-01-10T14:07:49.471Z,37.40
2019-01-10T14:10:15.406Z,37.40
2019-01-10T14:12:41.367Z,37.30
2019-01-10T14:15:07.411Z,37.30
2019-01-10T14:19:59.433Z,37.30
2019-01-10T14:22:25.384Z,37.30
2019-01-10T14:24:51.334Z,37.40
2019-01-10T14:27:17.302Z,37.30
2019-01-10T14:29:43.339Z,37.30
2019-01-10T14:32:09.288Z,37.90
2019-01-10T14:34:35.249Z,37.30
2019-01-10T14:37:01.315Z,37.30
2019-01-10T14:39:27.258Z,37.30
2019-01-10T14:41:53.225Z,37.30
2019-01-10T14:44:19.273Z,37.40
2019-01-10T14:46:45.230Z,37.40
2019-01-10T14:49:11.221Z,37.50
2019-01-10T14:51:37.267Z,37.40
2019-01-10T14:54:03.226Z,37.50
2019-01-10T14:56:29.174Z,37.50
2019-01-10T14:58:55.129Z,37.50
2019-01-10T15:01:21.079Z,37.60
2019-01-10T15:03:47.043Z,37.60
2019-01-10T15:06:13.075Z,37.70
2019-01-10T15:08:39.039Z,37.70
2019-01-10T15:11:05.071Z,37.70
2019-01-10T15:13:31.033Z,37.60
2019-01-10T15:15:57.687Z,37.60
2019-01-10T15:18:23.631Z,37.50
2019-01-10T15:20:49.616Z,37.50
2019-01-10T15:23:15.563Z,37.40
2019-01-10T15:25:41.815Z,37.40
2019-01-10T15:28:07.857Z,37.30
2019-01-10T15:30:33.798Z,37.30
2019-01-10T15:32:59.755Z,37.10
2019-01-10T15:35:26.129Z,37.10
2019-01-10T15:37:52.089Z,37.10
2019-01-10T15:40:18.343Z,37.10
2019-01-10T15:42:44.304Z,37.00
2019-01-10T15:45:10.283Z,36.90
2019-01-10T15:47:36.244Z,36.80
2019-01-10T15:50:02.220Z,36.70
2019-01-10T15:52:28.234Z,36.50
2019-01-10T15:54:54.206Z,36.50
2019-01-10T15:57:20.271Z,36.30
2019-01-10T15:59:46.331Z,36.10
2019-01-10T16:02:12.275Z,36.20
2019-01-10T16:04:38.239Z,36.20
2019-01-10T16:07:04.203Z,36.30
2019-01-10T16:09:30.282Z,36.30
2019-01-10T16:11:56.226Z,36.40
2019-01-10T16:14:22.175Z,36.40
2019-01-10T16:16:48.100Z,36.40
2019-01-10T16:19:14.113Z,36.40
2019-01-10T16:21:40.138Z,36.20
2019-01-10T16:24:06.117Z,36.30
2019-01-10T16:26:32.149Z,36.40
2019-01-10T16:28:58.108Z,36.50
2019-01-10T16:31:24.066Z,36.60
2019-01-10T16:33:50.111Z,36.50
2019-01-10T16:36:16.060Z,36.60
2019-01-10T16:38:42.045Z,36.50
2019-01-10T16:41:08.079Z,36.50
2019-01-10T16:43:34.057Z,36.50
2019-01-10T16:46:00.018Z,36.50
2019-01-10T16:48:25.974Z,37.10
2019-01-10T16:50:51.937Z,36.40
2019-01-10T16:53:18.106Z,36.30
2019-01-10T16:55:44.504Z,36.30
2019-01-10T16:58:10.468Z,36.20
2019-01-10T17:00:36.406Z,36.10
2019-01-10T17:03:02.344Z,35.90
2019-01-10T17:05:28.278Z,36.40
2019-01-10T17:07:54.227Z,35.70
2019-01-10T17:10:20.178Z,35.60
2019-01-10T17:12:46.207Z,35.50
2019-01-10T17:15:12.185Z,35.50
2019-01-10T17:17:38.231Z,35.40
2019-01-10T17:20:04.180Z,35.40
2019-01-10T17:22:30.134Z,35.30
2019-01-10T17:24:56.088Z,35.40
2019-01-10T17:27:22.064Z,35.50
2019-01-10T17:29:48.004Z,35.40
2019-01-10T17:32:13.946Z,35.50
2019-01-10T17:34:39.919Z,35.40
2019-01-10T17:37:05.876Z,35.90
2019-01-10T17:39:31.835Z,35.40
2019-01-10T17:41:57.779Z,35.30
2019-01-10T17:44:23.747Z,35.30
2019-01-10T17:46:49.700Z,35.30
2019-01-10T17:49:15.640Z,35.20
2019-01-10T17:51:41.583Z,35.20
2019-01-10T17:54:07.528Z,35.10
2019-01-10T17:56:33.464Z,35.10
2019-01-10T17:58:59.439Z,35.10
2019-01-10T18:01:25.485Z,35.10
2019-01-10T18:03:51.443Z,35.00
2019-01-10T18:06:17.424Z,35.00
2019-01-10T18:08:43.382Z,35.10
2019-01-10T18:11:09.330Z,35.10
2019-01-10T18:13:35.288Z,35.10
2019-01-10T18:16:01.247Z,35.20
2019-01-10T18:18:27.309Z,35.20
2019-01-10T18:20:53.355Z,35.10
2019-01-10T18:23:19.311Z,35.10
2019-01-10T18:25:45.277Z,35.40
2019-01-10T18:28:11.306Z,35.00
2019-01-10T18:30:43.175Z,34.80
2019-01-10T18:33:06.283Z,33.70
2019-01-10T18:35:32.606Z,32.30
2019-01-10T18:37:58.554Z,31.70
2019-01-10T18:40:24.534Z,31.40
2019-01-10T18:42:50.599Z,31.30
2019-01-10T18:45:17.082Z,31.20
2019-01-10T18:47:43.146Z,31.30
2019-01-10T18:50:09.113Z,31.30
2019-01-10T18:52:35.070Z,31.50
2019-01-10T18:55:01.097Z,31.50
2019-01-10T18:57:27.159Z,31.70
2019-01-10T18:59:53.110Z,31.60
2019-01-10T19:02:19.058Z,31.60
2019-01-10T19:04:45.006Z,31.60
2019-01-10T19:07:10.956Z,31.70
2019-01-10T19:09:36.925Z,31.90
2019-01-10T19:12:02.903Z,31.90
2019-01-10T19:14:28.947Z,32.00
2019-01-10T19:16:54.902Z,32.00
2019-01-10T19:19:20.902Z,32.00
2019-01-10T19:21:46.931Z,32.10
2019-01-10T19:24:12.878Z,32.00
2019-01-10T19:26:38.879Z,32.20
2019-01-10T19:29:06.274Z,32.30
2019-01-10T19:31:32.311Z,32.30
2019-01-10T19:33:58.373Z,32.30
2019-01-10T19:36:24.456Z,32.40
2019-01-10T19:38:50.514Z,32.60
2019-01-10T19:41:16.510Z,32.70
2019-01-10T19:43:42.546Z,32.70
2019-01-10T19:46:08.511Z,32.90
2019-01-10T19:48:34.598Z,32.90
2019-01-10T19:51:00.655Z,32.90
2019-01-10T19:53:26.614Z,33.10
2019-01-10T19:55:52.580Z,33.10
2019-01-10T19:58:18.563Z,33.10
2019-01-10T20:00:44.726Z,33.20
2019-01-10T20:03:10.782Z,33.20
2019-01-10T20:05:36.948Z,33.30
2019-01-10T20:08:02.911Z,33.40
2019-01-10T20:10:29.007Z,33.40
2019-01-10T20:12:54.949Z,33.50
2019-01-10T20:15:21.352Z,34.10
2019-01-10T20:17:47.492Z,33.70
2019-01-10T20:20:13.463Z,33.60
2019-01-10T20:22:39.404Z,33.60
2019-01-10T20:25:05.353Z,33.70
2019-01-10T20:27:31.311Z,33.70
2019-01-10T20:29:57.239Z,33.70
2019-01-10T20:32:23.192Z,34.40
2019-01-10T20:34:49.141Z,33.80
2019-01-10T20:37:15.085Z,33.90
2019-01-10T20:39:41.060Z,34.20
2019-01-10T20:42:07.097Z,34.30
2019-01-10T20:44:33.250Z,34.50
2019-01-10T20:46:59.303Z,35.10
2019-01-10T20:49:25.354Z,34.60
2019-01-10T20:51:51.329Z,34.60
2019-01-10T20:54:17.361Z,34.70
2019-01-10T20:56:43.342Z,34.60
2019-01-10T20:59:09.397Z,34.60
2019-01-10T21:01:35.364Z,34.40
2019-01-10T21:04:01.315Z,34.40
2019-01-10T21:06:27.267Z,34.40
2019-01-10T21:08:53.224Z,34.40
2019-01-10T21:11:19.169Z,34.40
2019-01-10T21:13:45.139Z,34.50
2019-01-10T21:16:11.097Z,34.60
2019-01-10T21:18:37.062Z,34.60
2019-01-10T21:21:02.996Z,34.70
2019-01-10T21:23:29.044Z,34.90
2019-01-10T21:25:55.026Z,34.90
2019-01-10T21:28:22.198Z,34.50
2019-01-10T21:30:48.147Z,35.00
2019-01-10T21:33:14.117Z,35.00
2019-01-10T21:35:40.157Z,34.90
2019-01-10T21:38:06.138Z,35.00
2019-01-10T21:40:32.084Z,35.60
2019-01-10T21:42:58.054Z,35.10
2019-01-10T21:45:24.179Z,35.10
2019-01-10T21:47:50.154Z,35.20
2019-01-10T21:50:16.104Z,35.30
2019-01-10T21:52:42.075Z,35.20
2019-01-10T21:55:08.483Z,35.30
2019-01-10T21:57:34.412Z,35.40
2019-01-10T22:00:00.373Z,35.30
2019-01-10T22:02:26.300Z,35.30
2019-01-10T22:04:53.155Z,35.30
2019-01-10T22:07:19.104Z,35.30
2019-01-10T22:09:45.066Z,35.30
2019-01-10T22:12:11.035Z,35.30
2019-01-10T22:14:37.078Z,35.30
2019-01-10T22:17:03.059Z,35.40
2019-01-10T22:19:29.112Z,35.30
2019-01-10T22:21:55.069Z,35.30
2019-01-10T22:24:21.108Z,35.30
2019-01-10T22:26:47.099Z,35.20
2019-01-10T22:29:13.050Z,35.10
2019-01-10T22:31:38.996Z,35.10
2019-01-10T22:34:04.938Z,35.10
2019-01-10T22:36:30.894Z,35.00
2019-01-10T22:38:56.956Z,35.10
2019-01-10T22:41:22.894Z,35.10
2019-01-10T22:43:48.862Z,35.00
2019-01-10T22:46:14.924Z,35.00
2019-01-10T22:48:40.890Z,35.10
2019-01-10T22:51:06.830Z,35.00
2019-01-10T22:53:32.815Z,34.90
2019-01-10T22:55:58.752Z,35.00
2019-01-10T22:58:24.694Z,34.90
2019-01-10T23:00:58.915Z,34.90
2019-01-10T23:03:25.044Z,34.80
2019-01-10T23:05:51.035Z,34.80
2019-01-10T23:08:17.053Z,35.40
2019-01-10T23:10:43.137Z,34.80
2019-01-10T23:13:09.170Z,34.90
2019-01-10T23:15:35.140Z,34.90
2019-01-10T23:18:01.118Z,35.00
2019-01-10T23:20:27.074Z,35.00
2019-01-10T23:22:54.919Z,35.00
2019-01-10T23:25:20.899Z,35.00
2019-01-10T23:27:46.878Z,35.10
2019-01-10T23:30:12.843Z,35.10
2019-01-10T23:32:38.925Z,35.10
2019-01-10T23:35:05.251Z,35.10
2019-01-10T23:37:31.205Z,35.10
2019-01-10T23:39:57.170Z,35.20
2019-01-10T23:42:23.185Z,35.30
2019-01-10T23:44:49.138Z,35.30
2019-01-10T23:47:15.091Z,35.30
2019-01-10T23:49:41.044Z,35.40
2019-01-10T23:52:07.107Z,35.40
2019-01-10T23:54:33.884Z,35.50
2019-01-10T23:56:59.833Z,35.60
2019-01-10T23:59:25.789Z,35.60
